Latest Coastal Weather Observations for Noarlunga

IDS60701

Issued at 4:51 pm CST Saturday 4 July 2015 (issued every 10 minutes, with the page automatically refreshed every 10 minutes)

About coastal observations | Map of coastal stations | Coastal observations for SA | Marine services | Other Formats
Station Details ID: 023885 Name: NOARLUNGA Lat: -35.16 Lon: 138.51 Height: 55.0 m
Data from the previous 72 hours. | See also: Recent months at Noarlunga
Date/Time
CST
Temp

°C
Wind Pressure Rain
since 9am
mm
Weather Cloud Vis
km
Sea
Height
m
Swell
Dir
 
Speed
knots
Gust
knots
hPa Trend Height
m
Period
s
Dir
04/04:30pm 14.8 N 6 8 - - 0.0 - - - - - - -
04/04:00pm 15.0 N 8 9 - - 0.0 - - - - - - -
04/03:30pm 15.2 NNW 6 8 - - 0.0 - - - - - - -
04/03:00pm 15.2 NNW 6 9 - - 0.0 - - - - - - -
04/02:30pm 15.3 NNW 6 9 - - 0.0 - - - - - - -
04/02:00pm 15.0 NNW 6 8 - - 0.0 - - - - - - -
04/01:30pm 14.8 NNW 6 8 - - 0.0 - - - - - - -
04/01:00pm 15.7 NNW 6 8 - - 0.0 - - - - - - -
04/12:30pm 15.9 NNW 5 8 - - 0.0 - - - - - - -
04/12:00pm 14.4 N 6 9 - - 0.0 - - - - - - -
04/11:30am 13.6 NNW 6 9 - - 0.0 - - - - - - -
04/11:00am 13.5 NNW 6 8 - - 0.0 - - - - - - -
04/10:30am 14.0 N 6 9 - - 0.0 - - - - - - -
04/10:00am 13.9 N 6 9 - - 0.0 - - - - - - -
04/09:30am 12.7 NNE 3 6 - - 0.0 - - - - - - -
04/09:00am 11.0 NE 4 6 - - 0.0 - - - - - - -
04/08:30am 9.7 NE 5 9 - - 0.0 - - - - - - -
04/08:00am 9.1 ENE 5 7 - - 0.0 - - - - - - -
04/07:30am 9.0 NE 4 6 - - 0.0 - - - - - - -
04/07:00am 8.7 NNE 6 7 - - 0.0 - - - - - - -
04/06:30am 8.2 NNE 3 4 - - 0.0 - - - - - - -
04/06:00am 7.8 NE 3 3 - - 0.0 - - - - - - -
04/05:30am 7.2 S 1 2 - - 0.0 - - - - - - -
04/05:00am 7.4 CALM 0 1 - - 0.0 - - - - - - -
04/04:30am 8.5 NE 3 5 - - 0.0 - - - - - - -
04/04:00am 8.0 NE 3 5 - - 0.0 - - - - - - -
04/03:30am 7.6 NE 1 4 - - 0.0 - - - - - - -
04/03:00am 7.7 NE 4 4 - - 0.0 - - - - - - -
04/02:30am 7.5 ENE 4 4 - - 0.0 - - - - - - -
04/02:00am 7.5 NE 3 4 - - 0.0 - - - - - - -
04/01:30am 7.5 ENE 2 3 - - 0.0 - - - - - - -
04/01:00am 7.8 ENE 2 2 - - 0.0 - - - - - - -
04/12:30am 8.1 ENE 3 4 - - 0.0 - - - - - - -
04/12:00am 9.0 ENE 3 4 - - 0.0 - - - - - - -
 
Date/Time
CST
Temp

°C
Wind Pressure Rain
since 9am
mm
Weather Cloud Vis
km
Sea
Height
m
Swell
Dir
 
Speed
knots
Gust
knots
hPa Trend Height
m
Period
s
Dir
03/11:30pm 9.2 ENE 3 4 - - 0.0 - - - - - - -
03/11:00pm 8.8 NE 4 5 - - 0.0 - - - - - - -
03/10:30pm 9.0 NE 1 3 - - 0.0 - - - - - - -
03/10:00pm 9.5 ENE 3 3 - - 0.0 - - - - - - -
03/09:30pm 9.2 ENE 2 3 - - 0.0 - - - - - - -
03/09:00pm 9.3 ENE 1 2 - - 0.0 - - - - - - -
03/08:30pm 9.5 NE 1 2 - - 0.0 - - - - - - -
03/08:00pm 9.9 ENE 3 4 - - 0.0 - - - - - - -
03/07:30pm 10.0 ENE 3 5 - - 0.0 - - - - - - -
03/07:00pm 10.1 ENE 3 4 - - 0.0 - - - - - - -
03/06:30pm 10.4 NE 2 3 - - 0.0 - - - - - - -
03/06:00pm 10.6 NNE 2 3 - - 0.0 - - - - - - -
03/05:30pm 10.7 NNW 2 3 - - 0.0 - - - - - - -
03/05:00pm 11.2 N 3 4 - - 0.0 - - - - - - -
03/04:30pm 11.4 NNW 2 3 - - 0.0 - - - - - - -
03/04:00pm 11.8 NW 4 7 - - 0.0 - - - - - - -
03/03:30pm 11.8 NW 3 4 - - 0.0 - - - - - - -
03/03:00pm 11.8 NW 3 5 - - 0.0 - - - - - - -
03/02:30pm 12.0 NNW 5 8 - - 0.0 - - - - - - -
03/02:00pm 12.3 NNW 6 9 - - 0.0 - - - - - - -
03/01:30pm 12.8 NNW 4 6 - - 0.0 - - - - - - -
03/01:00pm 11.8 NNW 5 8 - - 0.0 - - - - - - -
03/12:30pm 11.9 NW 3 6 - - 0.0 - - - - - - -
03/12:00pm 12.0 NNW 3 5 - - 0.0 - - - - - - -
03/11:30am 11.3 NW 4 6 - - 0.0 - - - - - - -
03/11:00am 11.5 WNW 3 4 - - 0.0 - - - - - - -
03/10:30am 11.2 NW 2 3 - - 0.0 - - - - - - -
03/10:00am 10.8 NNE 2 4 - - 0.0 - - - - - - -
03/09:30am 10.0 NE 3 5 - - 0.0 - - - - - - -
03/09:00am 8.7 ENE 3 4 - - 0.0 - - - - - - -
03/08:30am 7.3 ENE 5 7 - - 0.0 - - - - - - -
03/08:00am 5.6 ENE 2 3 - - 0.0 - - - - - - -
03/07:30am 5.0 ENE 2 4 - - 0.0 - - - - - - -
03/07:00am 5.4 ENE 3 5 - - 0.0 - - - - - - -
03/06:30am 5.9 E 4 5 - - 0.0 - - - - - - -
03/06:00am 7.2 ENE 6 7 - - 0.0 - - - - - - -
03/05:30am 7.8 ENE 6 7 - - 0.0 - - - - - - -
03/05:00am 7.7 ENE 6 7 - - 0.0 - - - - - - -
03/04:30am 6.3 ENE 4 5 - - 0.0 - - - - - - -
03/04:00am 6.4 ENE 4 5 - - 0.0 - - - - - - -
03/03:30am 7.6 ENE 4 6 - - 0.0 - - - - - - -
03/03:00am 7.8 ENE 5 6 - - 0.0 - - - - - - -
03/02:30am 8.1 ENE 5 6 - - 0.0 - - - - - - -
03/02:00am 8.0 NE 6 7 - - 0.0 - - - - - - -
03/01:30am 8.2 NE 6 8 - - 0.0 - - - - - - -
03/01:00am 7.7 ENE 5 7 - - 0.0 - - - - - - -
03/12:30am 8.0 ENE 6 10 - - 0.0 - - - - - - -
03/12:00am 8.1 E 6 8 - - 0.0 - - - - - - -
 
Date/Time
CST
Temp

°C
Wind Pressure Rain
since 9am
mm
Weather Cloud Vis
km
Sea
Height
m
Swell
Dir
 
Speed
knots
Gust
knots
hPa Trend Height
m
Period
s
Dir
02/11:30pm 7.9 E 5 7 - - 0.0 - - - - - - -
02/11:00pm 7.2 E 4 7 - - 0.0 - - - - - - -
02/10:30pm 6.5 ESE 4 5 - - 0.0 - - - - - - -
02/10:00pm 7.3 ESE 5 7 - - 0.0 - - - - - - -
02/09:30pm 7.7 E 6 8 - - 0.0 - - - - - - -
02/09:00pm 7.7 E 4 5 - - 0.0 - - - - - - -
02/08:30pm 8.1 E 3 5 - - 0.0 - - - - - - -
02/08:00pm 8.3 E 6 7 - - 0.0 - - - - - - -
02/07:30pm 9.1 E 5 6 - - 0.0 - - - - - - -
02/07:00pm 9.5 ESE 4 6 - - 0.0 - - - - - - -
02/06:30pm 9.6 ESE 6 7 - - 0.0 - - - - - - -
02/06:00pm 10.2 ESE 5 6 - - 0.0 - - - - - - -
02/05:30pm 11.0 SE 4 5 - - 0.0 - - - - - - -
02/05:00pm 11.9 SSE 5 8 - - 0.0 - - - - - - -
02/04:30pm 13.1 SSE 7 9 - - 0.0 - - - - - - -
02/04:00pm 13.4 SSE 7 10 - - 0.0 - - - - - - -
02/03:30pm 14.3 SSE 7 10 - - 0.0 - - - - - - -
02/03:00pm 14.9 S 9 13 - - 0.0 - - - - - - -
02/02:30pm 15.7 S 5 11 - - 0.0 - - - - - - -
02/02:00pm 15.3 S 9 13 - - 0.0 - - - - - - -
02/01:30pm 15.2 WSW 5 8 - - 0.0 - - - - - - -
02/01:00pm 14.8 SW 5 9 - - 0.0 - - - - - - -
02/12:30pm 14.5 SW 5 10 - - 0.0 - - - - - - -
02/12:00pm 15.0 SW 7 12 - - 0.0 - - - - - - -
02/11:30am 15.2 SW 5 8 - - 0.0 - - - - - - -
02/11:00am 14.7 SSW 4 9 - - 0.0 - - - - - - -
02/10:30am 14.3 SW 3 10 - - 0.0 - - - - - - -
02/10:00am 13.6 W 4 7 - - 0.0 - - - - - - -
02/09:30am 13.8 NE 1 2 - - 0.0 - - - - - - -
02/09:00am 12.3 NE 2 3 - - 0.0 - - - - - - -
02/08:30am 11.3 NE 3 5 - - 0.0 - - - - - - -
02/08:00am 11.3 NNE 2 4 - - 0.0 - - - - - - -
02/07:30am 11.2 NNE 2 5 - - 0.0 - - - - - - -
02/07:00am 10.9 N 6 7 - - 0.0 - - - - - - -
02/06:30am 10.8 NNE 4 6 - - 0.0 - - - - - - -
02/06:00am 10.9 NNE 5 7 - - 0.0 - - - - - - -
02/05:30am 11.2 N 5 8 - - 0.0 - - - - - - -
02/05:00am 10.8 N 9 12 - - 0.0 - - - - - - -
02/04:30am 10.5 NNE 7 10 - - 0.0 - - - - - - -
02/04:00am 10.4 N 9 13 - - 0.0 - - - - - - -
02/03:30am 10.8 N 7 9 - - 0.0 - - - - - - -
02/03:00am 11.1 N 7 10 - - 0.0 - - - - - - -
02/02:30am 11.0 N 7 11 - - 0.0 - - - - - - -
02/02:00am 11.1 N 8 11 - - 0.0 - - - - - - -
02/01:30am 11.3 N 9 12 - - 0.0 - - - - - - -
02/01:00am 11.5 N 8 13 - - 0.0 - - - - - - -
02/12:30am 11.7 N 6 10 - - 0.0 - - - - - - -
02/12:00am 12.2 NNW 8 11 - - 0.0 - - - - - - -
 
Date/Time
CST
Temp

°C
Wind Pressure Rain
since 9am
mm
Weather Cloud Vis
km
Sea
Height
m
Swell
Dir
 
Speed
knots
Gust
knots
hPa Trend Height
m
Period
s
Dir
01/11:30pm 12.3 NNW 7 11 - - 0.0 - - - - - - -
01/11:00pm 12.3 NNW 7 11 - - 0.0 - - - - - - -
01/10:30pm 12.2 NW 7 13 - - 0.0 - - - - - - -
01/10:00pm 12.2 NW 6 10 - - 0.0 - - - - - - -
01/09:30pm 12.1 NW 5 8 - - 0.0 - - - - - - -
01/09:00pm 12.0 NW 5 8 - - 0.0 - - - - - - -
01/08:30pm 11.9 NW 5 8 - - 0.0 - - - - - - -
01/08:00pm 12.0 NW 5 8 - - 0.0 - - - - - - -
01/07:30pm 11.8 NW 4 6 - - 0.0 - - - - - - -
01/07:00pm 11.0 NNW 3 5 - - 0.0 - - - - - - -
01/06:30pm 11.1 N 4 5 - - 0.0 - - - - - - -
01/06:00pm 11.0 N 4 5 - - 0.0 - - - - - - -
01/05:30pm 11.2 N 3 4 - - 0.0 - - - - - - -
01/05:00pm 11.6 N 3 5 - - 0.0 - - - - - - -

Other Formats:

Comma delimited format used in spreadsheet applications
http://www.bom.gov.au/fwo/IDS60701/IDS60701.94808.axf

JavaScript Object Notation format (JSON) in row-major order
http://www.bom.gov.au/fwo/IDS60701/IDS60701.94808.json